Time;durP1;ratioP1;P1;durP2;ratioP2;P2;SDS_P1;SDS_P2;PMS_P1;PMS_P2;Temp;Humidity;BMP_temperature;BMP_pressure;BME280_temperature;BME280_humidity;BME280_pressure;Samples;Min_cycle;Max_cycle;Signal;HPM_P1;HPM_P2
2022/07/27 00:01:05;;;;;;;5.62;3.08;;;;;;;18.23;68.62;99688.66;1793650;78;21861;-71
2022/07/27 00:03:32;;;;;;;6.62;4.10;;;;;;;18.21;68.65;99691.21;1799173;77;20972;-70
2022/07/27 00:05:58;;;;;;;6.42;4.10;;;;;;;18.20;68.75;99695.73;1806185;77;20975;-70
2022/07/27 00:08:26;;;;;;;5.20;3.35;;;;;;;18.18;68.89;99695.61;1790557;78;21069;-71
2022/07/27 00:10:52;;;;;;;6.67;3.15;;;;;;;18.13;68.95;99690.80;1799492;78;21354;-70
2022/07/27 00:13:19;;;;;;;3.50;2.83;;;;;;;18.11;68.97;99694.17;1822422;78;21915;-71
2022/07/27 00:15:47;;;;;;;5.42;2.90;;;;;;;18.07;69.04;99689.41;1775204;79;21508;-70
2022/07/27 00:18:15;;;;;;;4.30;2.62;;;;;;;18.06;69.08;99695.27;1791702;78;20966;-70
2022/07/27 00:20:42;;;;;;;3.90;3.10;;;;;;;18.05;69.12;99693.61;1766104;79;20961;-70
2022/07/27 00:23:09;;;;;;;3.40;3.10;;;;;;;18.03;69.17;99692.43;1808294;78;20999;-73
2022/07/27 00:25:35;;;;;;;3.37;2.60;;;;;;;18.03;69.29;99692.94;1769123;79;21902;-71
2022/07/27 00:28:04;;;;;;;3.00;2.65;;;;;;;18.00;69.38;99690.65;1790357;78;20955;-71
2022/07/27 00:30:31;;;;;;;3.37;2.87;;;;;;;18.01;69.34;99700.32;1749501;79;20965;-71
2022/07/27 00:32:57;;;;;;;4.72;2.92;;;;;;;17.98;69.38;99694.02;1821216;78;21030;-71
2022/07/27 00:35:24;;;;;;;3.27;2.80;;;;;;;17.97;69.45;99692.37;1783472;79;20953;-71
2022/07/27 00:37:50;;;;;;;3.00;2.70;;;;;;;17.94;69.54;99686.04;1802358;78;21892;-71
2022/07/27 00:40:17;;;;;;;3.10;2.80;;;;;;;17.93;69.66;99689.73;1797047;79;20982;-71
2022/07/27 00:42:44;;;;;;;3.27;2.70;;;;;;;17.90;69.70;99687.44;1816250;77;21033;-71
2022/07/27 00:45:11;;;;;;;4.78;2.50;;;;;;;17.88;69.68;99682.80;1818100;78;21105;-71
2022/07/27 00:47:37;;;;;;;4.25;2.65;;;;;;;17.84;69.69;99685.50;1819193;78;21022;-71
2022/07/27 00:50:05;;;;;;;5.37;2.92;;;;;;;17.80;69.74;99685.56;1801903;78;21917;-71
2022/07/27 00:52:32;;;;;;;3.83;2.85;;;;;;;17.79;69.74;99698.09;1797294;78;20975;-71
2022/07/27 00:54:59;;;;;;;4.05;2.87;;;;;;;17.78;69.78;99692.94;1791334;78;21477;-71
2022/07/27 00:57:28;;;;;;;5.53;2.90;;;;;;;17.78;69.86;99694.27;1774261;79;20995;-71
2022/07/27 00:59:54;;;;;;;3.72;2.70;;;;;;;17.78;69.88;99687.59;1782364;79;21409;-71
2022/07/27 01:02:21;;;;;;;4.90;3.00;;;;;;;17.76;69.89;99686.92;1794985;79;21913;-71
2022/07/27 01:04:47;;;;;;;5.50;2.90;;;;;;;17.76;69.94;99696.27;1801330;79;21039;-71
2022/07/27 01:07:14;;;;;;;4.58;2.58;;;;;;;17.75;70.03;99703.45;1787919;79;20944;-71
2022/07/27 01:09:56;;;;;;;5.78;2.92;;;;;;;17.74;70.05;99705.30;1793342;79;20991;-71
2022/07/27 01:12:30;;;;;;;4.95;3.40;;;;;;;17.72;70.05;99699.83;1787161;79;20920;-71
2022/07/27 01:14:57;;;;;;;6.05;2.80;;;;;;;17.67;70.11;99708.38;1784030;79;21816;-72
2022/07/27 01:17:29;;;;;;;7.60;3.12;;;;;;;17.64;70.18;99707.90;1789778;79;20931;-71
2022/07/27 01:19:56;;;;;;;5.72;2.95;;;;;;;17.60;70.24;99710.63;1791288;79;20944;-72
2022/07/27 01:22:23;;;;;;;4.25;2.98;;;;;;;17.58;70.35;99708.65;1788296;79;21026;-72
2022/07/27 01:24:50;;;;;;;4.97;2.98;;;;;;;17.57;70.34;99705.16;1807399;79;21019;-71
2022/07/27 01:27:17;;;;;;;6.72;3.30;;;;;;;17.58;70.34;99705.47;1795413;79;21910;-70
2022/07/27 01:29:43;;;;;;;6.65;3.25;;;;;;;17.56;70.38;99705.31;1805894;77;20928;-70
2022/07/27 01:32:10;;;;;;;6.42;3.67;;;;;;;17.54;70.39;99708.67;1773260;79;21035;-70
2022/07/27 01:34:37;;;;;;;6.05;4.00;;;;;;;17.51;70.43;99711.21;1787793;79;21023;-70
2022/07/27 01:37:04;;;;;;;8.20;5.00;;;;;;;17.51;70.42;99713.88;1778855;79;20960;-70
2022/07/27 01:39:32;;;;;;;7.70;4.78;;;;;;;17.51;70.33;99709.05;1763723;79;22018;-71
2022/07/27 01:42:00;;;;;;;9.50;4.92;;;;;;;17.48;70.26;99707.58;1774879;79;20947;-71
2022/07/27 01:44:27;;;;;;;8.20;4.83;;;;;;;17.46;70.20;99712.25;1773698;79;21480;-70
2022/07/27 01:46:53;;;;;;;6.03;4.30;;;;;;;17.43;70.18;99707.28;1797858;79;21406;-71
2022/07/27 01:49:20;;;;;;;7.65;4.10;;;;;;;17.42;70.27;99705.63;1784580;79;21529;-71
2022/07/27 01:51:46;;;;;;;6.22;4.17;;;;;;;17.40;70.38;99704.98;1775934;79;21884;-71
2022/07/27 01:54:13;;;;;;;8.33;5.40;;;;;;;17.39;70.42;99707.34;1802813;77;20932;-71
2022/07/27 01:56:40;;;;;;;8.23;5.85;;;;;;;17.40;70.39;99712.48;1828967;77;21019;-71
2022/07/27 01:59:06;;;;;;;8.93;6.33;;;;;;;17.39;70.36;99712.17;1826963;77;21072;-71
2022/07/27 02:01:33;;;;;;;10.60;5.90;;;;;;;17.39;70.29;99711.34;1843258;77;20922;-71
2022/07/27 02:04:00;;;;;;;9.83;6.08;;;;;;;17.38;70.28;99705.69;1830429;77;21797;-71
2022/07/27 02:06:26;;;;;;;9.68;6.00;;;;;;;17.35;70.21;99712.19;1832151;77;21061;-71
2022/07/27 02:08:53;;;;;;;9.35;5.58;;;;;;;17.34;70.21;99707.86;1830523;77;20990;-71
2022/07/27 02:14:04;;;;;;;9.33;5.40;;;;;;;17.30;70.31;99702.58;1814648;79;20978;-71
2022/07/27 02:16:31;;;;;;;11.78;5.80;;;;;;;17.26;70.40;99703.94;1815149;77;22238;-71
2022/07/27 02:18:58;;;;;;;9.20;5.58;;;;;;;17.23;70.47;99699.48;1820907;77;20966;-71
2022/07/27 02:21:25;;;;;;;8.05;5.50;;;;;;;17.22;70.53;99702.66;1815409;77;20986;-71
2022/07/27 02:23:51;;;;;;;8.18;5.25;;;;;;;17.20;70.53;99698.52;1843894;77;20961;-72
2022/07/27 02:26:18;;;;;;;9.03;5.40;;;;;;;17.19;70.58;99699.02;1833094;77;20970;-71
2022/07/27 02:28:45;;;;;;;8.73;5.60;;;;;;;17.16;70.62;99698.85;1829515;77;21884;-72
2022/07/27 02:31:11;;;;;;;7.60;5.20;;;;;;;17.16;70.62;99700.19;1838771;77;21492;-70
2022/07/27 02:33:39;;;;;;;7.03;5.10;;;;;;;17.16;70.59;99696.19;1818608;77;21037;-70
2022/07/27 02:36:05;;;;;;;6.58;5.17;;;;;;;17.16;70.56;99700.19;1822462;77;20933;-70
2022/07/27 02:38:32;;;;;;;7.85;5.17;;;;;;;17.19;70.57;99700.86;1816311;77;21410;-70
2022/07/27 02:41:00;;;;;;;10.48;5.25;;;;;;;17.19;70.61;99704.86;1820526;77;22223;-70
2022/07/27 02:43:26;;;;;;;7.00;5.10;;;;;;;17.19;70.67;99707.53;1826487;77;21416;-70
2022/07/27 02:45:52;;;;;;;8.53;4.85;;;;;;;17.16;70.77;99712.20;1837132;77;21002;-71
2022/07/27 02:48:19;;;;;;;10.13;5.00;;;;;;;17.17;70.91;99713.02;1817041;77;20970;-71
2022/07/27 02:50:45;;;;;;;7.65;4.62;;;;;;;17.16;71.03;99709.53;1814827;77;20942;-71
2022/07/27 02:53:13;;;;;;;5.60;4.55;;;;;;;17.17;71.06;99714.36;1843841;77;21828;-71
2022/07/27 02:55:41;;;;;;;10.80;5.00;;;;;;;17.17;71.10;99713.02;1827545;77;21061;-72
2022/07/27 02:58:07;;;;;;;6.17;4.78;;;;;;;17.19;71.16;99721.70;1821371;77;22583;-71
2022/07/27 03:00:34;;;;;;;8.63;4.45;;;;;;;17.20;71.21;99716.69;1817128;77;20950;-71
2022/07/27 03:03:01;;;;;;;8.68;5.00;;;;;;;17.24;71.22;99719.81;1820793;77;20938;-71
2022/07/27 03:05:28;;;;;;;6.70;5.00;;;;;;;17.25;71.26;99727.64;1817025;77;21786;-70
2022/07/27 03:07:56;;;;;;;7.53;4.55;;;;;;;17.26;71.30;99729.29;1822322;77;21323;-70
2022/07/27 03:10:23;;;;;;;6.53;5.08;;;;;;;17.28;71.38;99733.14;1818517;77;21053;-71
2022/07/27 03:12:49;;;;;;;5.17;4.55;;;;;;;17.30;71.41;99732.45;1826558;77;21060;-70
2022/07/27 03:15:15;;;;;;;7.05;4.70;;;;;;;17.30;71.44;99725.27;1827254;77;21460;-71
2022/07/27 03:17:42;;;;;;;8.13;4.92;;;;;;;17.33;71.48;99720.06;1827110;77;22140;-70
2022/07/27 03:20:11;;;;;;;7.40;4.65;;;;;;;17.36;71.43;99723.70;1837178;77;21006;-70
2022/07/27 03:22:39;;;;;;;6.33;4.92;;;;;;;17.40;71.40;99724.50;1791934;79;21045;-70
2022/07/27 03:25:07;;;;;;;8.10;4.65;;;;;;;17.44;71.45;99728.96;1827600;77;20930;-71
2022/07/27 03:27:34;;;;;;;6.87;4.33;;;;;;;17.48;71.53;99727.61;1844213;77;20950;-71
2022/07/27 03:30:00;;;;;;;6.12;4.50;;;;;;;17.61;71.40;99724.30;1842057;77;21932;-70
2022/07/27 03:32:27;;;;;;;5.92;4.55;;;;;;;17.67;71.33;99719.06;1818376;77;21013;-71
2022/07/27 03:34:53;;;;;;;6.85;4.55;;;;;;;17.70;71.34;99721.39;1817224;77;21091;-71
2022/07/27 03:37:20;;;;;;;7.70;4.80;;;;;;;17.74;71.34;99718.66;1843987;77;21029;-70
2022/07/27 03:39:47;;;;;;;6.35;4.90;;;;;;;17.81;71.34;99715.27;1846544;77;21072;-71
2022/07/27 03:42:13;;;;;;;6.80;4.67;;;;;;;17.90;71.29;99723.51;1818164;77;21873;-71
2022/07/27 03:44:40;;;;;;;5.95;4.20;;;;;;;17.97;71.22;99721.25;1828834;77;20969;-70
2022/07/27 03:47:06;;;;;;;6.05;4.00;;;;;;;18.09;71.09;99726.95;1833099;77;21279;-71
2022/07/27 03:49:33;;;;;;;4.72;3.47;;;;;;;18.19;71.00;99734.17;1845958;77;21041;-71
2022/07/27 03:51:59;;;;;;;5.40;3.40;;;;;;;18.34;70.79;99725.31;1823795;77;21041;-71
2022/07/27 03:54:26;;;;;;;5.20;3.60;;;;;;;18.47;70.72;99725.45;1831203;77;22232;-72
2022/07/27 03:56:53;;;;;;;5.00;4.05;;;;;;;18.57;70.69;99726.80;1828819;77;20975;-71
2022/07/27 03:59:20;;;;;;;5.72;3.50;;;;;;;18.69;70.58;99728.50;1827861;77;21025;-72
2022/07/27 04:01:46;;;;;;;4.85;2.80;;;;;;;18.79;70.58;99731.69;1823042;76;21116;-71
2022/07/27 04:04:14;;;;;;;2.70;2.50;;;;;;;18.93;70.02;99734.00;1837377;77;21393;-72
2022/07/27 04:06:41;;;;;;;4.37;2.40;;;;;;;19.06;69.42;99726.59;1808675;77;22492;-72
2022/07/27 04:09:08;;;;;;;2.98;2.20;;;;;;;19.22;68.87;99724.99;1833012;77;21439;-72
2022/07/27 04:11:36;;;;;;;2.50;2.17;;;;;;;19.36;68.21;99725.91;1823167;77;21349;-72
2022/07/27 04:14:02;;;;;;;2.55;2.20;;;;;;;19.52;67.49;99728.31;1822207;77;20927;-71
2022/07/27 04:16:29;;;;;;;3.45;2.45;;;;;;;19.66;66.88;99723.38;1817612;77;21002;-70
2022/07/27 04:18:56;;;;;;;2.35;2.00;;;;;;;19.82;66.50;99718.73;1848733;77;21403;-71
2022/07/27 04:21:23;;;;;;;2.37;2.05;;;;;;;19.94;66.04;99719.31;1849618;77;21370;-71
2022/07/27 04:23:49;;;;;;;2.55;2.10;;;;;;;20.09;65.82;99713.01;1845033;77;21076;-71
2022/07/27 04:26:16;;;;;;;3.55;2.30;;;;;;;20.23;65.48;99712.02;1816117;79;20998;-71
2022/07/27 04:28:42;;;;;;;4.20;2.30;;;;;;;20.35;65.28;99714.43;1816374;78;20978;-71
2022/07/27 04:31:09;;;;;;;2.87;2.40;;;;;;;20.48;65.00;99711.02;1816302;79;21932;-70
2022/07/27 04:33:35;;;;;;;2.67;2.02;;;;;;;20.59;64.75;99713.11;1817614;77;20934;-71
2022/07/27 04:36:04;;;;;;;2.60;2.17;;;;;;;20.72;64.48;99716.33;1849592;77;21388;-70
2022/07/27 04:38:31;;;;;;;3.25;2.33;;;;;;;20.84;63.73;99718.23;1821548;77;21022;-70
2022/07/27 04:40:57;;;;;;;4.00;2.22;;;;;;;20.96;63.37;99718.44;1847696;77;21021;-71
2022/07/27 04:43:24;;;;;;;2.62;2.40;;;;;;;21.08;63.15;99719.99;1848622;77;22493;-71
2022/07/27 04:45:51;;;;;;;2.95;2.25;;;;;;;21.17;62.60;99721.95;1849593;77;20983;-72
2022/07/27 04:48:17;;;;;;;4.03;2.30;;;;;;;21.26;62.40;99722.06;1834227;77;21536;-72
2022/07/27 04:50:45;;;;;;;4.12;2.25;;;;;;;21.35;62.15;99724.89;1818579;77;21001;-71
2022/07/27 04:53:12;;;;;;;4.47;2.55;;;;;;;21.41;61.70;99728.89;1849625;77;21156;-72
2022/07/27 04:55:44;;;;;;;2.55;2.35;;;;;;;21.49;61.48;99723.83;1839389;77;21813;-71
2022/07/27 04:58:11;;;;;;;3.20;2.20;;;;;;;21.55;61.14;99725.69;1810339;77;21484;-71
2022/07/27 05:00:38;;;;;;;3.55;2.25;;;;;;;21.61;60.41;99728.86;1816284;79;21381;-71
2022/07/27 05:03:05;;;;;;;5.37;2.52;;;;;;;21.69;60.41;99722.45;1816241;77;21391;-71
2022/07/27 05:05:33;;;;;;;3.65;2.50;;;;;;;21.77;60.58;99731.64;1816319;79;20929;-71
2022/07/27 05:08:01;;;;;;;3.60;2.30;;;;;;;21.87;60.60;99729.34;1761775;79;21828;-71
2022/07/27 05:10:29;;;;;;;3.90;2.20;;;;;;;21.95;59.93;99731.80;1815418;79;21006;-71
2022/07/27 05:12:56;;;;;;;3.10;2.30;;;;;;;22.05;59.97;99736.74;1815429;77;20979;-71
2022/07/27 05:15:23;;;;;;;4.53;2.30;;;;;;;22.16;59.97;99745.52;1815268;79;21003;-73
2022/07/27 05:17:51;;;;;;;2.55;2.00;;;;;;;22.26;59.77;99743.20;1806070;77;21030;-71
2022/07/27 05:20:18;;;;;;;3.22;2.10;;;;;;;22.36;59.21;99744.10;1799793;79;21858;-71
2022/07/27 05:22:44;;;;;;;3.92;2.20;;;;;;;22.46;58.45;99751.72;1783050;79;20939;-72
2022/07/27 05:25:11;;;;;;;3.60;2.40;;;;;;;22.54;57.75;99751.47;1781433;79;20975;-71
2022/07/27 05:27:38;;;;;;;4.10;2.40;;;;;;;22.59;57.27;99750.84;1784818;79;21477;-72
2022/07/27 05:30:06;;;;;;;3.33;2.15;;;;;;;22.67;56.94;99755.95;1772474;81;21461;-72
2022/07/27 05:32:33;;;;;;;3.70;2.12;;;;;;;22.71;56.85;99762.58;1772684;81;22540;-71
2022/07/27 05:34:59;;;;;;;2.40;2.00;;;;;;;22.78;56.64;99760.68;1772475;81;21463;-71
2022/07/27 05:37:26;;;;;;;3.47;1.92;;;;;;;22.83;56.05;99767.05;1789281;79;21367;-71
2022/07/27 05:39:52;;;;;;;4.12;2.02;;;;;;;22.90;55.96;99768.92;1815255;79;21388;-71
2022/07/27 05:42:20;;;;;;;2.90;1.77;;;;;;;22.97;55.40;99772.37;1794175;79;21513;-71
2022/07/27 05:44:46;;;;;;;6.20;2.08;;;;;;;23.04;55.01;99774.52;1752351;82;21886;-71
2022/07/27 05:47:13;;;;;;;2.42;1.95;;;;;;;23.12;54.96;99779.12;1783459;79;20998;-71
2022/07/27 05:49:42;;;;;;;3.50;1.62;;;;;;;23.23;54.92;99781.63;1783364;79;20939;-71
2022/07/27 05:52:09;;;;;;;4.00;1.70;;;;;;;23.32;54.90;99785.71;1789480;79;21003;-71
2022/07/27 05:54:35;;;;;;;1.72;1.60;;;;;;;23.42;54.41;99790.09;1787704;79;20936;-71
2022/07/27 05:57:02;;;;;;;3.75;1.80;;;;;;;23.53;53.97;99793.11;1793793;79;22250;-71
2022/07/27 05:59:31;;;;;;;3.17;1.70;;;;;;;23.59;53.71;99799.02;1784872;79;21011;-71
2022/07/27 06:01:58;;;;;;;3.62;1.80;;;;;;;23.65;53.47;99804.36;1804173;79;20996;-71
2022/07/27 06:04:25;;;;;;;2.95;1.60;;;;;;;23.73;53.76;99801.05;1804275;79;20960;-71
2022/07/27 06:09:38;;;;;;;2.77;1.80;;;;;;;23.82;52.28;99792.98;1772550;81;22594;-71
2022/07/27 06:12:06;;;;;;;2.33;1.60;;;;;;;23.86;52.37;99796.91;1772434;81;20939;-71
2022/07/27 06:14:32;;;;;;;3.55;1.70;;;;;;;23.91;52.53;99798.39;1772847;81;20989;-71
2022/07/27 06:16:59;;;;;;;2.85;1.60;;;;;;;23.96;52.18;99793.17;1777503;79;21004;-71
2022/07/27 06:19:26;;;;;;;2.62;1.92;;;;;;;23.98;51.80;99791.89;1772907;81;20995;-71
2022/07/27 06:21:52;;;;;;;5.33;1.92;;;;;;;24.03;52.45;99792.59;1772458;81;21984;-71
2022/07/27 06:24:19;;;;;;;3.20;1.67;;;;;;;24.13;52.83;99792.07;1773158;79;21055;-71
2022/07/27 06:26:45;;;;;;;2.05;1.52;;;;;;;24.24;52.70;99794.02;1777497;79;20991;-71
2022/07/27 06:29:13;;;;;;;2.37;1.98;;;;;;;24.32;52.40;99795.10;1803954;79;20952;-72
2022/07/27 06:31:40;;;;;;;2.33;2.05;;;;;;;24.39;52.14;99805.27;1804366;79;20988;-72
2022/07/27 06:34:06;;;;;;;2.65;1.98;;;;;;;24.44;52.22;99801.38;1783929;79;21510;-72
2022/07/27 06:36:33;;;;;;;4.95;2.15;;;;;;;24.51;52.28;99802.63;1772973;79;21424;-72
2022/07/27 06:38:59;;;;;;;5.00;2.27;;;;;;;24.55;51.96;99797.92;1772733;81;21490;-72
2022/07/27 06:41:26;;;;;;;3.47;2.15;;;;;;;24.61;52.38;99794.00;1772688;81;20960;-72
2022/07/27 06:43:52;;;;;;;3.85;2.00;;;;;;;24.68;52.70;99801.50;1772506;81;20952;-72
2022/07/27 06:46:19;;;;;;;5.10;2.20;;;;;;;24.77;52.24;99805.53;1794633;79;22315;-72
2022/07/27 06:48:46;;;;;;;5.90;2.25;;;;;;;24.86;52.84;99802.81;1783402;79;21003;-73
2022/07/27 06:51:12;;;;;;;1525.40;168.70;;;;;;;24.96;52.79;99799.56;1795586;79;20956;-72
2022/07/27 06:53:38;;;;;;;89.83;15.15;;;;;;;25.08;52.75;99799.92;1835879;77;21021;-72
2022/07/27 06:56:07;;;;;;;12.93;3.75;;;;;;;25.15;51.44;99802.53;1828244;77;20926;-71
2022/07/27 06:58:36;;;;;;;6.40;2.75;;;;;;;25.20;51.22;99797.27;1808039;77;21933;-72
2022/07/27 07:01:03;;;;;;;2.20;1.92;;;;;;;25.28;50.83;99800.14;1816047;79;20930;-72
2022/07/27 07:03:30;;;;;;;2.10;1.80;;;;;;;25.35;50.47;99796.29;1843200;77;21441;-72
2022/07/27 07:05:57;;;;;;;4.45;1.80;;;;;;;25.41;49.11;99794.55;1849375;77;20982;-72
2022/07/27 07:08:23;;;;;;;3.22;1.62;;;;;;;25.42;49.21;99792.14;1821323;77;21033;-72
2022/07/27 07:10:50;;;;;;;2.25;1.70;;;;;;;25.47;49.25;99796.30;1816267;78;21919;-71
2022/07/27 07:13:18;;;;;;;5.25;2.02;;;;;;;25.57;48.83;99796.55;1816816;77;20949;-72
2022/07/27 07:15:44;;;;;;;9.83;1.90;;;;;;;25.63;48.28;99796.97;1816144;79;20950;-71
2022/07/27 07:18:13;;;;;;;8.03;2.08;;;;;;;25.71;47.95;99799.91;1816225;79;20942;-71
2022/07/27 07:20:40;;;;;;;8.30;2.08;;;;;;;25.68;47.08;99798.99;1816162;79;20990;-71
2022/07/27 07:23:07;;;;;;;10.30;2.02;;;;;;;25.65;47.84;99800.27;1834317;77;21989;-71
2022/07/27 07:25:34;;;;;;;11.05;2.47;;;;;;;25.68;47.41;99803.05;1821402;77;20974;-71
2022/07/27 07:28:01;;;;;;;3.33;1.60;;;;;;;25.74;47.33;99809.42;1816113;79;20981;-71
2022/07/27 07:30:28;;;;;;;6.10;1.80;;;;;;;25.77;46.76;99813.00;1816159;79;20975;-71
2022/07/27 07:32:56;;;;;;;2.30;1.80;;;;;;;25.79;47.07;99804.97;1816888;77;21405;-72
2022/07/27 07:35:23;;;;;;;4.20;1.80;;;;;;;25.84;47.02;99810.48;1816426;79;21933;-71
2022/07/27 07:37:49;;;;;;;2.47;1.70;;;;;;;25.88;47.28;99814.38;1829971;77;21013;-72
2022/07/27 07:40:18;;;;;;;3.47;1.75;;;;;;;25.97;47.05;99814.85;1824834;78;20980;-71
2022/07/27 07:42:58;;;;;;;5.37;1.80;;;;;;;26.05;46.43;99816.35;1832516;77;20951;-72
2022/07/27 07:45:26;;;;;;;4.47;1.80;;;;;;;26.10;46.66;99820.01;1814595;79;20943;-72
2022/07/27 07:47:53;;;;;;;2.20;1.87;;;;;;;26.15;46.68;99815.22;1814829;79;21879;-72
2022/07/27 07:50:21;;;;;;;4.92;1.87;;;;;;;26.19;46.61;99815.06;1814631;79;21429;-72
2022/07/27 07:52:49;;;;;;;139.88;9.33;;;;;;;26.22;46.71;99814.05;1814619;79;21017;-71
2022/07/27 07:55:25;;;;;;;7.12;2.35;;;;;;;26.28;46.54;99806.05;1815820;77;21813;-71
2022/07/27 07:57:52;;;;;;;8.00;2.20;;;;;;;26.40;47.38;99805.52;1817347;77;21013;-72
2022/07/27 08:00:18;;;;;;;3.00;2.15;;;;;;;26.55;46.60;99810.44;1816033;78;21862;-72
2022/07/27 08:02:53;;;;;;;4.22;2.10;;;;;;;26.60;45.43;99814.58;1832825;77;20943;-71
2022/07/27 08:05:21;;;;;;;4.22;2.20;;;;;;;26.61;45.94;99808.92;1849674;77;20962;-71
2022/07/27 08:07:49;;;;;;;3.72;2.00;;;;;;;26.63;45.77;99812.74;1842127;77;21449;-72
2022/07/27 08:10:17;;;;;;;162.43;9.70;;;;;;;26.70;46.07;99813.43;1849400;77;20981;-71
2022/07/27 08:12:47;;;;;;;55.60;5.05;;;;;;;26.75;45.92;99814.37;1849875;77;21899;-72
2022/07/27 08:15:14;;;;;;;4.17;2.35;;;;;;;26.83;45.80;99814.52;1840262;77;20919;-72
2022/07/27 08:17:42;;;;;;;8.30;2.50;;;;;;;26.84;45.64;99812.63;1816282;79;20973;-72
2022/07/27 08:20:10;;;;;;;5.80;2.60;;;;;;;26.84;45.09;99816.70;1816264;79;21029;-71
2022/07/27 08:22:38;;;;;;;2.83;2.45;;;;;;;26.81;45.05;99810.67;1816358;79;21073;-72
2022/07/27 08:25:05;;;;;;;2.62;2.40;;;;;;;26.85;45.98;99810.21;1846528;77;22126;-72
2022/07/27 08:27:33;;;;;;;30.27;3.52;;;;;;;26.95;46.27;99817.17;1849594;77;20915;-71
2022/07/27 08:30:00;;;;;;;5.10;2.47;;;;;;;27.06;45.91;99817.15;1831460;77;20966;-72
2022/07/27 08:32:27;;;;;;;3.62;2.50;;;;;;;27.19;46.61;99814.66;1817699;77;21407;-72
2022/07/27 08:34:55;;;;;;;3.98;2.75;;;;;;;27.36;46.31;99809.27;1816359;79;20930;-72
2022/07/27 08:37:22;;;;;;;3.65;2.40;;;;;;;27.52;45.33;99817.13;1817844;77;22491;-72
2022/07/27 08:39:49;;;;;;;11.95;2.85;;;;;;;27.61;45.12;99812.41;1849458;77;20982;-73
2022/07/27 08:42:17;;;;;;;5.50;2.70;;;;;;;27.65;44.15;99817.64;1849714;77;20935;-72
2022/07/27 08:44:45;;;;;;;2.90;2.37;;;;;;;27.64;44.32;99811.08;1826467;77;21087;-72
2022/07/27 08:47:13;;;;;;;3.60;2.62;;;;;;;27.68;44.45;99815.50;1816345;78;20990;-72
2022/07/27 08:49:42;;;;;;;9.93;2.70;;;;;;;27.75;44.72;99814.27;1831850;77;21836;-72
2022/07/27 08:52:10;;;;;;;2.87;2.47;;;;;;;27.89;43.78;99813.38;1849565;77;21492;-72
2022/07/27 08:54:39;;;;;;;8.35;2.60;;;;;;;28.03;43.88;99812.51;1843501;77;21511;-72
2022/07/27 08:57:08;;;;;;;4.90;2.58;;;;;;;28.19;43.73;99813.02;1761797;81;21000;-70
2022/07/27 08:59:35;;;;;;;3.70;2.52;;;;;;;28.29;43.01;99813.18;1761725;81;20959;-71
2022/07/27 09:02:04;;;;;;;4.65;2.77;;;;;;;28.33;43.57;99812.95;1761449;80;21884;-70
2022/07/27 09:04:31;;;;;;;2.92;2.33;;;;;;;28.36;42.47;99807.00;1791332;79;20975;-71
2022/07/27 09:06:57;;;;;;;3.60;2.60;;;;;;;28.41;42.92;99810.34;1769903;79;21193;-70
2022/07/27 09:09:24;;;;;;;8.05;2.72;;;;;;;28.49;42.79;99810.72;1798369;78;21206;-71
2022/07/27 09:12:08;;;;;;;3.37;2.72;;;;;;;28.60;42.64;99809.48;1797768;79;20994;-71
2022/07/27 09:14:39;;;;;;;6.25;2.75;;;;;;;28.65;41.82;99813.60;1768254;79;22245;-71
2022/07/27 09:17:24;;;;;;;4.70;2.70;;;;;;;28.57;41.40;99814.89;1797870;78;20939;-71
2022/07/27 09:20:11;;;;;;;3.62;2.70;;;;;;;28.51;41.76;99806.39;1791872;78;20998;-71
2022/07/27 09:22:46;;;;;;;3.50;2.77;;;;;;;28.42;41.29;99803.83;1797681;78;20995;-71
2022/07/27 09:25:15;;;;;;;5.35;2.70;;;;;;;28.37;42.92;99801.85;1818765;78;21402;-71
2022/07/27 09:27:44;;;;;;;3.47;2.45;;;;;;;28.50;43.09;99798.78;1797770;79;22535;-71
2022/07/27 09:30:15;;;;;;;3.33;2.52;;;;;;;28.65;40.91;99807.62;1797984;79;20938;-71
2022/07/27 09:33:00;;;;;;;4.33;2.45;;;;;;;28.69;41.31;99800.63;1797912;78;20974;-71
2022/07/27 09:35:29;;;;;;;3.90;2.40;;;;;;;28.72;41.32;99798.75;1796444;78;20947;-71
2022/07/27 09:37:59;;;;;;;4.47;2.52;;;;;;;28.81;39.87;99790.97;1766900;78;20924;-71
2022/07/27 09:40:26;;;;;;;3.83;2.52;;;;;;;28.86;40.81;99790.22;1801425;78;22515;-71
2022/07/27 09:43:09;;;;;;;3.25;2.60;;;;;;;28.95;40.28;99796.33;1804863;78;20991;-71
2022/07/27 09:45:42;;;;;;;4.92;2.37;;;;;;;29.03;40.88;99797.20;1830154;77;21406;-71
2022/07/27 09:48:14;;;;;;;2.92;2.08;;;;;;;29.13;38.85;99801.09;1830355;78;21010;-71
2022/07/27 09:50:45;;;;;;;6.03;2.70;;;;;;;29.18;39.14;99795.17;1830951;78;21085;-71
2022/07/27 09:53:17;;;;;;;4.53;2.40;;;;;;;29.24;38.75;99797.39;1830406;77;22504;-71
2022/07/27 09:55:57;;;;;;;3.22;2.25;;;;;;;29.24;39.68;99800.95;1830406;78;20955;-70
2022/07/27 09:58:48;;;;;;;2.50;2.30;;;;;;;29.32;39.86;99800.45;1805080;78;20971;-71
2022/07/27 10:01:24;;;;;;;4.25;2.30;;;;;;;29.40;39.49;99808.69;1798048;78;20990;-71
2022/07/27 10:03:59;;;;;;;2.85;2.10;;;;;;;29.55;39.70;99798.52;1825833;77;21441;-72
2022/07/27 10:06:26;;;;;;;2.85;2.15;;;;;;;29.72;40.09;99794.27;1820322;77;21830;-71
2022/07/27 10:08:54;;;;;;;2.30;2.10;;;;;;;29.92;38.94;99801.23;1821033;78;20939;-70
2022/07/27 10:11:21;;;;;;;5.22;2.40;;;;;;;30.03;37.94;99805.66;1778815;78;21002;-71
2022/07/27 10:13:49;;;;;;;5.75;2.70;;;;;;;30.11;37.90;99801.11;1791877;78;21549;-73
2022/07/27 10:16:26;;;;;;;3.10;2.30;;;;;;;30.22;37.48;99805.24;1799286;79;21028;-71
2022/07/27 10:19:22;;;;;;;4.90;2.05;;;;;;;30.28;37.84;99804.16;1822104;78;20896;-71
2022/07/27 10:21:49;;;;;;;2.98;2.10;;;;;;;30.39;37.95;99808.57;1799564;78;21049;-72
2022/07/27 10:24:32;;;;;;;3.08;2.20;;;;;;;30.48;37.58;99807.79;1821969;78;21018;-71
2022/07/27 10:27:17;;;;;;;3.33;2.22;;;;;;;30.56;38.21;99816.00;1779038;79;20951;-71
2022/07/27 10:29:48;;;;;;;2.40;2.20;;;;;;;30.77;38.51;99811.47;1742486;81;21407;-71
2022/07/27 10:32:29;;;;;;;2.50;2.30;;;;;;;31.05;38.52;99810.17;1798847;77;21825;-71
2022/07/27 10:34:57;;;;;;;3.97;2.33;;;;;;;31.23;38.11;99808.32;1753090;81;20950;-71
2022/07/27 10:37:32;;;;;;;3.27;2.37;;;;;;;31.43;37.44;99806.69;1799236;78;20939;-71
2022/07/27 10:43:08;;;;;;;2.50;2.20;;;;;;;31.72;37.85;99798.75;1768560;81;27901;-72
2022/07/27 10:45:40;;;;;;;2.17;1.90;;;;;;;31.86;37.36;99802.05;1802758;78;21893;-71
2022/07/27 10:48:07;;;;;;;4.08;2.40;;;;;;;31.97;35.90;99798.75;1791125;79;20962;-71
2022/07/27 10:50:35;;;;;;;3.42;2.08;;;;;;;32.12;36.02;99805.52;1768193;79;21356;-71
2022/07/27 10:53:05;;;;;;;2.00;1.90;;;;;;;32.24;35.57;99800.32;1821864;77;20963;-71
2022/07/27 10:55:37;;;;;;;3.08;2.25;;;;;;;32.36;34.75;99800.30;1796788;78;20996;-71
2022/07/27 10:58:24;;;;;;;2.00;1.80;;;;;;;32.40;35.13;99794.53;1821902;78;22715;-71
2022/07/27 11:00:56;;;;;;;2.40;2.15;;;;;;;32.33;33.77;99800.86;1791241;78;20991;-72
2022/07/27 11:03:26;;;;;;;2.77;2.20;;;;;;;32.37;35.91;99796.46;1737026;80;20969;-70
2022/07/27 11:05:58;;;;;;;2.92;2.30;;;;;;;32.54;35.92;99800.22;1801395;77;20935;-71
2022/07/27 11:08:29;;;;;;;3.72;2.08;;;;;;;32.66;35.91;99799.34;1814691;77;20935;-71
2022/07/27 11:10:56;;;;;;;2.52;2.22;;;;;;;32.86;34.86;99801.17;1814617;79;22571;-71
2022/07/27 11:13:26;;;;;;;2.85;1.80;;;;;;;33.02;34.37;99803.27;1815256;77;20844;-71
2022/07/27 11:16:01;;;;;;;2.80;1.90;;;;;;;33.19;33.94;99790.53;1815238;79;20936;-71
2022/07/27 11:18:29;;;;;;;4.28;2.10;;;;;;;33.33;34.44;99796.20;1815693;78;21388;-71
2022/07/27 11:21:22;;;;;;;3.20;2.20;;;;;;;33.46;32.95;99792.82;1815502;79;20931;-71
2022/07/27 11:23:54;;;;;;;2.20;2.00;;;;;;;33.48;32.81;99797.45;1784706;79;21885;-72
2022/07/27 11:26:22;;;;;;;2.50;2.00;;;;;;;33.54;33.51;99799.05;1772517;81;20999;-71
2022/07/27 11:28:49;;;;;;;2.87;2.00;;;;;;;33.57;31.29;99796.55;1816408;78;21361;-71
2022/07/27 11:31:16;;;;;;;2.22;2.02;;;;;;;33.39;31.36;99794.51;1817451;77;21428;-71
2022/07/27 11:33:52;;;;;;;2.70;1.90;;;;;;;33.19;31.91;99796.83;1816448;77;20978;-71
2022/07/27 11:36:19;;;;;;;2.08;1.87;;;;;;;33.16;33.16;99793.86;1813712;79;21883;-71
2022/07/27 11:38:53;;;;;;;2.08;1.87;;;;;;;33.22;32.02;99799.56;1819206;77;20939;-71
2022/07/27 11:41:26;;;;;;;2.27;2.08;;;;;;;33.23;32.28;99796.54;1849618;77;21007;-71
2022/07/27 11:43:56;;;;;;;2.20;2.00;;;;;;;33.34;33.21;99793.17;1821472;77;20989;-72
2022/07/27 11:46:26;;;;;;;3.30;2.10;;;;;;;33.49;33.28;99794.45;1821526;77;20977;-71